Time;durP1;ratioP1;P1;durP2;ratioP2;P2;SDS_P1;SDS_P2;PMS_P1;PMS_P2;Temp;Humidity;BMP_temperature;BMP_pressure;BME280_temperature;BME280_humidity;BME280_pressure;Samples;Min_cycle;Max_cycle;Signal;HPM_P1;HPM_P2
2023/05/28 00:00:08;;;;;;;16.63;7.05;;;11.10;99.90;;;;;;4984454;28;20569;-80
2023/05/28 00:02:34;;;;;;;17.17;6.85;;;11.00;99.90;;;;;;4960792;28;20046;-80
2023/05/28 00:05:00;;;;;;;18.50;6.80;;;10.90;99.90;;;;;;4989348;28;20053;-80
2023/05/28 00:07:28;;;;;;;16.92;7.38;;;10.90;99.90;;;;;;4969598;28;20053;-80
2023/05/28 00:09:58;;;;;;;14.45;7.25;;;10.90;99.90;;;;;;4951216;28;20046;-80
2023/05/28 00:12:24;;;;;;;17.70;6.95;;;10.80;99.90;;;;;;5002008;28;20548;-80
2023/05/28 00:14:50;;;;;;;19.65;7.10;;;10.80;99.90;;;;;;4975152;28;20034;-80
2023/05/28 00:17:17;;;;;;;27.38;8.15;;;10.80;99.90;;;;;;4985714;28;20117;-80
2023/05/28 00:19:43;;;;;;;17.45;6.75;;;10.80;99.90;;;;;;5012865;28;20045;-80
2023/05/28 00:22:09;;;;;;;16.92;6.30;;;10.70;99.90;;;;;;4991151;28;20549;-80
2023/05/28 00:24:35;;;;;;;17.00;6.85;;;10.70;99.90;;;;;;4990457;28;20491;-80
2023/05/28 00:27:02;;;;;;;15.52;6.88;;;10.70;99.90;;;;;;4978140;28;20052;-81
2023/05/28 00:29:29;;;;;;;19.42;7.30;;;10.60;99.90;;;;;;4984134;28;20558;-80
2023/05/28 00:31:57;;;;;;;18.08;6.35;;;10.60;99.90;;;;;;4972065;28;20037;-80
2023/05/28 00:34:23;;;;;;;23.15;7.60;;;10.50;99.90;;;;;;5013887;28;20061;-80
2023/05/28 00:36:49;;;;;;;18.23;7.05;;;10.40;99.90;;;;;;4983524;28;20086;-81
2023/05/28 00:39:16;;;;;;;23.48;8.45;;;10.40;99.90;;;;;;4996847;28;20069;-80
2023/05/28 00:41:41;;;;;;;22.52;7.65;;;10.30;99.90;;;;;;5000918;28;20558;-80
2023/05/28 00:44:08;;;;;;;18.13;7.47;;;10.30;99.90;;;;;;4992623;28;20070;-80
2023/05/28 00:46:45;;;;;;;18.02;7.20;;;10.30;99.90;;;;;;4980890;28;20039;-80
2023/05/28 00:49:12;;;;;;;17.92;6.82;;;10.20;99.90;;;;;;4988126;28;20514;-81
2023/05/28 00:51:39;;;;;;;15.43;7.13;;;10.30;99.90;;;;;;4965147;28;20045;-81
2023/05/28 00:54:05;;;;;;;16.58;6.63;;;10.20;99.90;;;;;;4993615;28;20042;-81
2023/05/28 00:56:31;;;;;;;17.80;6.38;;;10.20;99.90;;;;;;4987679;28;20044;-80
2023/05/28 00:59:00;;;;;;;18.13;7.32;;;10.20;99.90;;;;;;4948272;28;20037;-81
2023/05/28 01:01:26;;;;;;;15.82;6.90;;;10.10;99.90;;;;;;4990850;28;20033;-81
2023/05/28 01:03:52;;;;;;;17.92;7.65;;;10.10;99.90;;;;;;4973444;28;20045;-81
2023/05/28 01:06:23;;;;;;;20.73;7.03;;;10.10;99.90;;;;;;5002845;28;20132;-80
2023/05/28 01:08:50;;;;;;;14.88;7.13;;;10.10;99.90;;;;;;4993147;28;20121;-81
2023/05/28 01:11:18;;;;;;;15.73;6.40;;;10.00;99.90;;;;;;4992725;28;20042;-81
2023/05/28 01:13:45;;;;;;;19.55;7.07;;;10.00;99.90;;;;;;5010174;28;20038;-81
2023/05/28 01:16:11;;;;;;;17.40;7.30;;;10.00;99.90;;;;;;5002821;28;20065;-81
2023/05/28 01:18:39;;;;;;;18.55;7.28;;;9.90;99.90;;;;;;4984980;28;20077;-81
2023/05/28 01:21:06;;;;;;;24.00;7.75;;;9.90;99.90;;;;;;4993458;28;20049;-81
2023/05/28 01:23:47;;;;;;;19.95;7.85;;;9.90;99.90;;;;;;5000781;28;20119;-81
2023/05/28 01:26:15;;;;;;;18.10;7.82;;;9.90;99.90;;;;;;4996120;28;20045;-81
2023/05/28 01:28:45;;;;;;;18.77;6.88;;;9.90;99.90;;;;;;4995396;28;20037;-81
2023/05/28 01:31:15;;;;;;;25.50;7.72;;;9.90;99.90;;;;;;4996966;28;20034;-81
2023/05/28 01:33:42;;;;;;;23.55;8.48;;;9.80;99.90;;;;;;5001883;28;20676;-80
2023/05/28 01:36:19;;;;;;;17.55;7.25;;;9.80;99.90;;;;;;4974536;28;20034;-80
2023/05/28 01:38:48;;;;;;;25.65;8.80;;;9.70;99.90;;;;;;4989843;28;20069;-81
2023/05/28 01:41:15;;;;;;;20.05;7.95;;;9.70;99.90;;;;;;5003416;28;20041;-81
2023/05/28 01:43:42;;;;;;;20.50;7.80;;;9.70;99.90;;;;;;4991986;28;20042;-81
2023/05/28 01:46:08;;;;;;;26.60;8.07;;;9.60;99.90;;;;;;5008154;28;20117;-81
2023/05/28 01:48:36;;;;;;;19.50;7.85;;;9.60;99.90;;;;;;5005005;28;20041;-81
2023/05/28 01:51:01;;;;;;;20.35;8.45;;;9.50;99.90;;;;;;5003314;28;20042;-81
2023/05/28 01:53:27;;;;;;;22.58;7.97;;;9.40;99.90;;;;;;4976127;28;20049;-81
2023/05/28 01:55:55;;;;;;;24.15;8.30;;;9.50;99.90;;;;;;4978877;28;20045;-81
2023/05/28 01:58:22;;;;;;;17.50;7.85;;;9.40;99.90;;;;;;5014130;28;20034;-81
2023/05/28 02:01:39;;;;;;;19.80;8.35;;;9.40;99.90;;;;;;4999492;28;20047;-81
2023/05/28 02:04:05;;;;;;;21.35;8.15;;;9.40;99.90;;;;;;4972152;28;20050;-81
2023/05/28 02:06:33;;;;;;;16.75;8.57;;;9.40;99.90;;;;;;4968188;28;20056;-81
2023/05/28 02:08:59;;;;;;;17.27;8.90;;;9.40;99.90;;;;;;4993001;28;20042;-81
2023/05/28 02:11:25;;;;;;;21.98;8.27;;;9.40;99.90;;;;;;5006127;28;20045;-81
2023/05/28 02:13:52;;;;;;;18.33;7.63;;;9.40;99.90;;;;;;5004660;28;20048;-81
2023/05/28 02:16:17;;;;;;;20.40;8.45;;;9.30;99.90;;;;;;4978585;28;20034;-81
2023/05/28 02:18:44;;;;;;;24.02;8.70;;;9.40;99.90;;;;;;4985184;28;20042;-81
2023/05/28 02:21:13;;;;;;;21.67;7.85;;;9.40;99.90;;;;;;4968213;28;20081;-81
2023/05/28 02:23:45;;;;;;;23.42;8.35;;;9.40;99.90;;;;;;5002245;28;20041;-81
2023/05/28 02:26:11;;;;;;;25.13;9.97;;;9.40;99.90;;;;;;5002551;28;20056;-81
2023/05/28 02:28:37;;;;;;;21.73;8.65;;;9.40;99.90;;;;;;4974791;28;20053;-81
2023/05/28 02:31:03;;;;;;;23.45;8.57;;;9.40;99.90;;;;;;4960087;28;20129;-81
2023/05/28 02:33:29;;;;;;;21.05;8.88;;;9.40;99.90;;;;;;5005229;28;20435;-81
2023/05/28 02:35:55;;;;;;;19.65;8.88;;;9.50;99.90;;;;;;4990898;28;20141;-81
2023/05/28 02:38:21;;;;;;;25.00;10.15;;;9.40;99.90;;;;;;4987277;28;20042;-81
2023/05/28 02:40:46;;;;;;;18.23;8.30;;;9.50;99.90;;;;;;4974624;28;20034;-80
2023/05/28 02:43:12;;;;;;;22.05;8.38;;;9.50;99.90;;;;;;5003967;28;20562;-81
2023/05/28 02:45:38;;;;;;;20.58;9.02;;;9.50;99.90;;;;;;4975887;28;20498;-81
2023/05/28 02:48:04;;;;;;;20.17;8.60;;;9.50;99.90;;;;;;4959542;28;20113;-81
2023/05/28 02:50:29;;;;;;;23.90;8.90;;;9.50;99.90;;;;;;4974130;28;20026;-81
2023/05/28 02:52:56;;;;;;;20.30;8.73;;;9.50;99.90;;;;;;4981164;28;20038;-80
2023/05/28 02:55:22;;;;;;;21.30;8.45;;;9.50;99.90;;;;;;4992063;28;20038;-81
2023/05/28 02:57:47;;;;;;;24.30;9.07;;;9.60;99.90;;;;;;4980371;28;20132;-81
2023/05/28 03:00:14;;;;;;;19.50;8.68;;;9.60;99.90;;;;;;4975927;28;20041;-81
2023/05/28 03:02:39;;;;;;;22.73;9.27;;;9.60;99.90;;;;;;4989896;28;20045;-81
2023/05/28 03:05:07;;;;;;;22.33;8.70;;;9.60;99.90;;;;;;4982027;28;20576;-81
2023/05/28 03:07:33;;;;;;;23.65;9.02;;;9.60;99.90;;;;;;4995302;28;20117;-80
2023/05/28 03:09:59;;;;;;;25.05;8.63;;;9.60;99.90;;;;;;4963223;28;20122;-81
2023/05/28 03:12:25;;;;;;;20.52;8.50;;;9.60;99.90;;;;;;4977458;28;20035;-81
2023/05/28 03:14:50;;;;;;;17.70;8.50;;;9.60;99.90;;;;;;4996784;28;20045;-81
2023/05/28 03:17:16;;;;;;;19.85;8.98;;;9.60;99.90;;;;;;5005069;28;20050;-81
2023/05/28 03:19:42;;;;;;;19.48;8.90;;;9.60;99.90;;;;;;5004972;28;20039;-81
2023/05/28 03:22:08;;;;;;;21.90;9.05;;;9.60;99.90;;;;;;4964505;28;20527;-81
2023/05/28 03:24:34;;;;;;;23.52;9.23;;;9.60;99.90;;;;;;5004499;28;20042;-81
2023/05/28 03:27:01;;;;;;;23.45;9.20;;;9.70;99.90;;;;;;5012670;28;20042;-80
2023/05/28 03:29:27;;;;;;;21.63;8.98;;;9.70;99.90;;;;;;4972245;28;20137;-81
2023/05/28 03:31:52;;;;;;;22.85;8.88;;;9.70;99.90;;;;;;4991310;28;20442;-81
2023/05/28 03:34:18;;;;;;;22.35;8.32;;;9.70;99.90;;;;;;4992563;28;20684;-81
2023/05/28 03:36:44;;;;;;;22.45;9.13;;;9.70;99.90;;;;;;4979249;28;20048;-81
2023/05/28 03:39:11;;;;;;;23.70;8.85;;;9.80;99.90;;;;;;4998300;28;20065;-81
2023/05/28 03:41:37;;;;;;;27.15;8.93;;;9.80;99.90;;;;;;4998406;28;20033;-80
2023/05/28 03:44:04;;;;;;;22.13;8.55;;;9.80;99.90;;;;;;5008242;28;20384;-81
2023/05/28 03:46:30;;;;;;;32.40;10.38;;;9.80;99.90;;;;;;4994915;28;20042;-81
2023/05/28 03:48:56;;;;;;;20.40;9.50;;;9.90;99.90;;;;;;4977325;28;20040;-81
2023/05/28 03:51:23;;;;;;;19.40;8.18;;;9.90;99.90;;;;;;4975845;28;20048;-81
2023/05/28 03:53:49;;;;;;;22.42;9.40;;;9.90;99.90;;;;;;4991305;28;20045;-81
2023/05/28 03:56:15;;;;;;;24.50;9.30;;;9.90;99.90;;;;;;5011873;28;20041;-81
2023/05/28 03:58:41;;;;;;;19.63;8.27;;;10.00;99.90;;;;;;4975568;28;20128;-81
2023/05/28 04:01:09;;;;;;;19.73;8.77;;;10.00;99.90;;;;;;4990217;28;20124;-81
2023/05/28 04:03:34;;;;;;;22.55;8.80;;;10.00;99.90;;;;;;4994567;28;20056;-81
2023/05/28 04:06:01;;;;;;;22.38;8.88;;;10.00;99.90;;;;;;5014147;28;20058;-80
2023/05/28 04:08:27;;;;;;;22.70;9.27;;;10.10;99.90;;;;;;4980622;28;20110;-81
2023/05/28 04:10:52;;;;;;;20.42;7.95;;;10.10;99.90;;;;;;5016851;28;20033;-80
2023/05/28 04:13:18;;;;;;;22.98;9.02;;;10.20;99.90;;;;;;4995821;28;20508;-81
2023/05/28 04:15:44;;;;;;;24.30;8.50;;;10.20;99.90;;;;;;5013020;28;20037;-81
2023/05/28 04:18:10;;;;;;;20.13;9.00;;;10.20;99.90;;;;;;4998318;28;20422;-80
2023/05/28 04:20:35;;;;;;;22.25;8.15;;;10.20;99.90;;;;;;4995962;28;20048;-80
2023/05/28 04:23:03;;;;;;;24.98;9.13;;;10.30;99.90;;;;;;5012625;28;20402;-80
2023/05/28 04:25:28;;;;;;;21.90;8.27;;;10.20;99.90;;;;;;5013528;28;20116;-80
2023/05/28 04:27:56;;;;;;;22.45;9.02;;;10.30;99.90;;;;;;5005523;28;20175;-80
2023/05/28 04:30:23;;;;;;;20.30;8.30;;;10.30;99.90;;;;;;5011266;28;20591;-80
2023/05/28 04:32:53;;;;;;;23.52;8.32;;;10.30;99.90;;;;;;4980987;28;20690;-80
2023/05/28 04:35:19;;;;;;;19.67;9.05;;;10.30;99.90;;;;;;5010718;28;20033;-80
2023/05/28 04:37:45;;;;;;;20.25;8.98;;;10.40;99.90;;;;;;4997431;28;20057;-80
2023/05/28 04:40:11;;;;;;;19.95;8.63;;;10.40;99.90;;;;;;4979695;28;20042;-80
2023/05/28 04:42:38;;;;;;;18.95;8.45;;;10.30;99.90;;;;;;4979832;28;20049;-81
2023/05/28 04:45:05;;;;;;;22.38;7.85;;;10.40;99.90;;;;;;4979897;28;20136;-81
2023/05/28 04:47:30;;;;;;;17.88;8.65;;;10.40;99.90;;;;;;4996606;28;20128;-81
2023/05/28 04:49:57;;;;;;;19.17;9.00;;;10.40;99.90;;;;;;4994598;28;20124;-80
2023/05/28 04:52:23;;;;;;;23.65;8.55;;;10.40;99.90;;;;;;5026496;28;20037;-80
2023/05/28 04:54:50;;;;;;;22.50;9.20;;;10.40;99.90;;;;;;4992596;28;20414;-79
2023/05/28 04:57:16;;;;;;;23.50;9.00;;;10.50;99.90;;;;;;4992721;28;20487;-80
2023/05/28 04:59:42;;;;;;;24.90;9.02;;;10.50;99.90;;;;;;5010767;28;20125;-80
2023/05/28 05:02:08;;;;;;;25.00;9.10;;;10.50;99.90;;;;;;5013212;28;20466;-80
2023/05/28 05:04:34;;;;;;;19.27;8.77;;;10.50;99.90;;;;;;5000023;28;20030;-80
2023/05/28 05:07:00;;;;;;;24.92;9.57;;;10.50;99.90;;;;;;4978226;28;20424;-81
2023/05/28 05:09:27;;;;;;;23.83;8.75;;;10.60;99.90;;;;;;4990754;28;20164;-80
2023/05/28 05:11:52;;;;;;;21.48;9.88;;;10.60;99.90;;;;;;5007969;28;20129;-81
2023/05/28 05:14:18;;;;;;;27.63;9.52;;;10.70;99.90;;;;;;4988819;28;20140;-81
2023/05/28 05:16:45;;;;;;;20.10;9.25;;;10.70;99.90;;;;;;5012253;28;20040;-80
2023/05/28 05:19:11;;;;;;;19.80;8.68;;;10.70;99.90;;;;;;5029148;28;20033;-80
2023/05/28 05:21:37;;;;;;;21.90;9.38;;;10.80;99.90;;;;;;5029414;28;20099;-80
2023/05/28 05:24:03;;;;;;;19.55;8.43;;;10.80;99.90;;;;;;5022460;28;20528;-80
2023/05/28 05:26:28;;;;;;;25.38;9.77;;;10.80;99.90;;;;;;4978186;28;20034;-80
2023/05/28 05:28:54;;;;;;;19.63;8.98;;;10.80;99.90;;;;;;4979042;28;20415;-80
2023/05/28 05:31:19;;;;;;;24.58;9.43;;;10.90;99.90;;;;;;4999430;28;20069;-80
2023/05/28 05:33:45;;;;;;;24.42;9.10;;;11.00;99.90;;;;;;5028334;28;20091;-80
2023/05/28 05:36:11;;;;;;;23.73;9.30;;;11.00;99.90;;;;;;4975345;28;20042;-80
2023/05/28 05:38:38;;;;;;;21.80;8.63;;;11.00;99.90;;;;;;4992670;28;20045;-80
2023/05/28 05:41:03;;;;;;;20.45;9.15;;;11.20;99.90;;;;;;4994125;28;20124;-80
2023/05/28 05:43:29;;;;;;;17.75;8.32;;;11.20;99.90;;;;;;5011376;28;20145;-80
2023/05/28 05:45:55;;;;;;;22.27;9.10;;;11.30;99.90;;;;;;5012558;28;20041;-80
2023/05/28 05:48:20;;;;;;;21.15;8.32;;;11.30;99.90;;;;;;4978882;28;20509;-80
2023/05/28 05:50:50;;;;;;;19.85;9.00;;;11.30;99.90;;;;;;5009210;28;20044;-80
2023/05/28 05:53:17;;;;;;;18.33;8.25;;;11.40;99.90;;;;;;4994353;28;20033;-80
2023/05/28 05:55:43;;;;;;;21.10;9.07;;;11.50;99.90;;;;;;5011167;28;20041;-80
2023/05/28 05:58:09;;;;;;;17.83;7.93;;;11.60;99.90;;;;;;5012685;28;20516;-80
2023/05/28 06:00:35;;;;;;;17.15;7.03;;;11.60;99.90;;;;;;5010800;28;20049;-80
2023/05/28 06:03:00;;;;;;;17.35;7.15;;;11.70;99.90;;;;;;5013297;28;20040;-81
2023/05/28 06:05:27;;;;;;;19.30;8.13;;;11.90;99.90;;;;;;5009106;28;20506;-80
2023/05/28 06:07:52;;;;;;;15.45;7.22;;;12.00;99.90;;;;;;5012112;28;20414;-80
2023/05/28 06:10:18;;;;;;;17.05;7.30;;;12.10;99.90;;;;;;4985412;28;20037;-81
2023/05/28 06:12:44;;;;;;;17.27;6.28;;;12.20;99.90;;;;;;4994735;28;20048;-81
2023/05/28 06:15:11;;;;;;;14.35;7.00;;;12.30;99.90;;;;;;5022391;28;20042;-81
2023/05/28 06:17:37;;;;;;;17.38;6.43;;;12.40;99.90;;;;;;5012685;28;20072;-81
2023/05/28 06:20:06;;;;;;;13.27;6.45;;;12.50;99.90;;;;;;4995858;28;20042;-81
2023/05/28 06:22:32;;;;;;;20.63;6.45;;;12.60;99.90;;;;;;4977080;28;20059;-81
2023/05/28 06:25:00;;;;;;;15.80;6.22;;;12.70;99.90;;;;;;5008878;28;20048;-80
2023/05/28 06:27:27;;;;;;;20.73;6.88;;;12.80;99.90;;;;;;5008688;28;20048;-81
2023/05/28 06:29:53;;;;;;;12.93;6.13;;;12.90;99.90;;;;;;5007040;28;20041;-80
2023/05/28 06:32:19;;;;;;;15.57;6.00;;;13.00;99.90;;;;;;4992030;28;20037;-80
2023/05/28 06:34:45;;;;;;;11.95;6.15;;;13.10;99.90;;;;;;5007487;28;20041;-79
2023/05/28 06:37:11;;;;;;;11.98;6.25;;;13.30;99.90;;;;;;5006458;28;20034;-80
2023/05/28 06:39:37;;;;;;;13.68;6.50;;;13.40;99.90;;;;;;4992378;28;20042;-79
2023/05/28 06:42:03;;;;;;;14.73;6.57;;;13.60;99.90;;;;;;5006257;28;20052;-80
2023/05/28 06:44:29;;;;;;;12.63;6.10;;;13.70;99.90;;;;;;4991968;28;20146;-79
2023/05/28 06:46:55;;;;;;;14.30;6.60;;;13.80;99.90;;;;;;4973886;28;20495;-80
2023/05/28 06:49:20;;;;;;;12.80;5.88;;;13.90;99.90;;;;;;5008060;28;20029;-80
2023/05/28 06:51:46;;;;;;;13.23;5.93;;;13.90;99.90;;;;;;4989944;28;20289;-79
2023/05/28 06:54:12;;;;;;;13.07;5.82;;;14.00;99.90;;;;;;4991492;28;20090;-80
2023/05/28 06:56:37;;;;;;;11.05;5.63;;;14.00;99.90;;;;;;4991179;28;20044;-79
2023/05/28 06:59:03;;;;;;;17.63;6.13;;;14.10;99.90;;;;;;4974204;28;20030;-79
2023/05/28 07:01:29;;;;;;;12.95;5.63;;;14.20;99.90;;;;;;4991625;28;20037;-79
2023/05/28 07:03:54;;;;;;;14.68;5.68;;;14.40;99.90;;;;;;4976179;28;20033;-80
2023/05/28 07:06:20;;;;;;;16.83;6.30;;;14.50;99.90;;;;;;4992390;28;21449;-79
2023/05/28 07:08:46;;;;;;;16.35;6.05;;;14.70;99.90;;;;;;4979134;28;20065;-80
2023/05/28 07:11:12;;;;;;;17.88;5.78;;;14.90;99.90;;;;;;5012281;28;20487;-80
2023/05/28 07:13:41;;;;;;;17.17;5.13;;;15.10;99.90;;;;;;4979571;28;20034;-80
2023/05/28 07:16:07;;;;;;;15.35;6.28;;;15.30;99.90;;;;;;5012774;28;20082;-80
2023/05/28 07:18:33;;;;;;;15.40;5.82;;;15.50;99.90;;;;;;4996317;28;20155;-81
2023/05/28 07:20:59;;;;;;;11.70;6.10;;;15.60;99.90;;;;;;4995564;28;20555;-80
2023/05/28 07:23:25;;;;;;;14.75;6.40;;;15.60;99.90;;;;;;5009569;28;20041;-80
2023/05/28 07:25:50;;;;;;;14.30;4.88;;;15.80;99.90;;;;;;5020692;28;20042;-79
2023/05/28 07:28:16;;;;;;;13.32;5.50;;;16.00;99.90;;;;;;4994775;28;20132;-80
2023/05/28 07:30:42;;;;;;;13.73;5.78;;;16.10;99.90;;;;;;5011866;28;20049;-79
2023/05/28 07:33:08;;;;;;;14.40;5.55;;;16.20;99.90;;;;;;4989460;28;20037;-80
2023/05/28 07:35:34;;;;;;;13.05;5.40;;;16.40;99.90;;;;;;4994476;28;20755;-79
2023/05/28 07:38:01;;;;;;;12.23;6.22;;;16.50;99.90;;;;;;4978549;28;20041;-79
2023/05/28 07:40:27;;;;;;;12.57;5.30;;;16.70;99.90;;;;;;4976978;28;20048;-79
2023/05/28 07:42:53;;;;;;;19.42;6.85;;;16.70;99.90;;;;;;4995448;28;20037;-79
2023/05/28 07:45:18;;;;;;;10.38;5.10;;;16.80;99.90;;;;;;5011727;28;20045;-79
2023/05/28 07:47:44;;;;;;;14.25;5.22;;;16.90;99.90;;;;;;4993127;28;20049;-79
2023/05/28 07:50:10;;;;;;;15.70;5.95;;;17.00;99.90;;;;;;4976455;28;20030;-80
2023/05/28 07:52:36;;;;;;;13.35;5.10;;;17.10;99.90;;;;;;5011538;28;20113;-79
2023/05/28 07:55:03;;;;;;;14.40;5.30;;;17.20;99.90;;;;;;5011257;28;20057;-79
2023/05/28 07:57:29;;;;;;;13.18;6.60;;;17.30;99.90;;;;;;5007455;28;20033;-79
2023/05/28 07:59:55;;;;;;;11.82;4.68;;;17.50;99.90;;;;;;5009493;28;20049;-79
2023/05/28 08:02:21;;;;;;;13.93;6.07;;;17.60;99.90;;;;;;4993825;28;20116;-79
2023/05/28 08:04:48;;;;;;;12.65;6.68;;;17.70;99.90;;;;;;5008084;28;20625;-80
2023/05/28 08:07:14;;;;;;;12.82;5.93;;;17.80;99.90;;;;;;5014027;28;20053;-81
2023/05/28 08:09:43;;;;;;;13.20;6.43;;;18.00;99.90;;;;;;5013644;28;20041;-81
2023/05/28 08:12:09;;;;;;;17.08;6.78;;;18.10;99.90;;;;;;4997236;28;20064;-80
2023/05/28 08:14:35;;;;;;;9.75;5.13;;;18.20;99.90;;;;;;4998297;28;20515;-80
2023/05/28 08:17:01;;;;;;;15.75;5.82;;;18.30;99.90;;;;;;5028664;28;20045;-80
2023/05/28 08:19:26;;;;;;;14.18;5.63;;;18.40;99.90;;;;;;5014104;28;20051;-80
2023/05/28 08:21:52;;;;;;;14.18;6.38;;;18.50;99.90;;;;;;5031007;28;20041;-75
2023/05/28 08:24:20;;;;;;;8.88;5.25;;;18.60;99.90;;;;;;4997591;28;20541;-75
2023/05/28 08:26:46;;;;;;;12.32;5.30;;;18.70;99.90;;;;;;5008356;28;20132;-75
2023/05/28 08:29:12;;;;;;;14.05;5.15;;;18.80;99.90;;;;;;4976379;28;20427;-75
2023/05/28 08:31:37;;;;;;;14.07;5.05;;;18.80;99.90;;;;;;4997947;28;20045;-75
2023/05/28 08:34:03;;;;;;;13.35;5.45;;;18.80;99.20;;;;;;4981910;28;20040;-75
2023/05/28 08:36:29;;;;;;;10.63;5.15;;;18.90;99.70;;;;;;4980363;28;20109;-75
2023/05/28 08:38:55;;;;;;;12.20;5.05;;;19.00;99.20;;;;;;4998270;28;20042;-76
2023/05/28 08:41:21;;;;;;;9.98;4.97;;;19.20;98.90;;;;;;4976908;28;20067;-76
2023/05/28 08:43:47;;;;;;;11.95;5.05;;;19.20;97.60;;;;;;4997386;28;20041;-76
2023/05/28 08:46:14;;;;;;;10.95;5.65;;;19.30;98.20;;;;;;4981053;28;20060;-76
2023/05/28 08:48:41;;;;;;;15.13;5.45;;;19.40;98.20;;;;;;4997132;28;20504;-76
2023/05/28 08:51:08;;;;;;;12.55;5.68;;;19.50;97.50;;;;;;4980354;28;20109;-76
2023/05/28 08:53:40;;;;;;;8.90;4.85;;;19.60;97.40;;;;;;5014234;28;20029;-76
2023/05/28 08:56:09;;;;;;;;;;;19.70;97.30;;;;;;5012781;28;20108;-76
2023/05/28 08:58:41;;;;;;;11.02;5.47;;;19.80;96.00;;;;;;4987816;28;19924;-76
2023/05/28 09:01:08;;;;;;;11.45;5.30;;;19.90;96.80;;;;;;4996728;28;20132;-74
2023/05/28 09:03:41;;;;;;;12.27;5.15;;;20.00;96.80;;;;;;4997443;28;20041;-74
2023/05/28 09:06:08;;;;;;;9.63;5.22;;;20.20;96.80;;;;;;5012752;28;20109;-74
2023/05/28 09:08:34;;;;;;;15.23;5.30;;;20.20;96.30;;;;;;4995537;28;20041;-74
2023/05/28 09:11:11;;;;;;;12.00;5.78;;;20.30;96.50;;;;;;5011753;28;20037;-74
2023/05/28 09:13:44;;;;;;;12.10;5.85;;;20.30;95.30;;;;;;4997454;28;20037;-74
2023/05/28 09:16:10;;;;;;;14.18;5.82;;;20.50;95.80;;;;;;4996373;28;20076;-74
2023/05/28 09:18:36;;;;;;;11.38;5.55;;;20.60;96.40;;;;;;5012312;28;20041;-74
2023/05/28 09:21:10;;;;;;;10.45;5.80;;;20.60;95.90;;;;;;5012962;28;20033;-75
2023/05/28 09:23:36;;;;;;;13.50;5.60;;;20.60;95.50;;;;;;4994038;28;20053;-75
2023/05/28 09:26:02;;;;;;;12.82;5.50;;;20.80;95.90;;;;;;4995055;28;20510;-75
2023/05/28 09:28:28;;;;;;;10.23;5.00;;;20.90;96.10;;;;;;5012253;28;20675;-75
2023/05/28 09:31:02;;;;;;;13.88;5.75;;;20.80;95.00;;;;;;5013469;28;20037;-75
2023/05/28 09:33:28;;;;;;;12.05;5.65;;;21.00;94.80;;;;;;5013283;28;20033;-75
2023/05/28 09:36:01;;;;;;;11.52;5.03;;;21.00;94.80;;;;;;5010591;28;20040;-75
2023/05/28 09:38:36;;;;;;;11.52;5.72;;;21.10;95.10;;;;;;5008833;28;20049;-75
2023/05/28 09:41:03;;;;;;;11.82;5.30;;;21.10;94.50;;;;;;5011063;28;20053;-75
2023/05/28 09:43:29;;;;;;;10.35;5.25;;;21.20;94.50;;;;;;5007847;28;20387;-75
2023/05/28 09:46:08;;;;;;;12.07;5.25;;;21.30;93.60;;;;;;5029139;28;20164;-75
2023/05/28 09:48:34;;;;;;;11.63;5.57;;;21.30;93.00;;;;;;5010987;28;20042;-75
2023/05/28 09:51:10;;;;;;;11.98;6.15;;;21.30;93.70;;;;;;5010863;28;20056;-75
2023/05/28 09:53:40;;;;;;;17.38;6.32;;;21.30;93.20;;;;;;5012586;28;20037;-75
2023/05/28 09:56:08;;;;;;;11.52;5.90;;;21.40;93.50;;;;;;5012063;28;20037;-75
2023/05/28 09:58:35;;;;;;;12.75;5.72;;;21.50;92.80;;;;;;4996066;28;20120;-75
2023/05/28 10:01:07;;;;;;;11.57;6.15;;;21.60;93.60;;;;;;5011253;28;20629;-74
2023/05/28 10:03:44;;;;;;;13.55;5.35;;;21.60;92.80;;;;;;5012860;28;20525;-75
2023/05/28 10:06:18;;;;;;;30.65;6.82;;;21.60;92.40;;;;;;4995327;28;20054;-75
2023/05/28 10:08:51;;;;;;;13.45;5.75;;;21.70;92.20;;;;;;5011411;28;20418;-75
2023/05/28 10:11:21;;;;;;;14.55;5.43;;;21.80;92.00;;;;;;4996005;28;20041;-75
2023/05/28 10:13:48;;;;;;;9.05;5.32;;;21.90;91.50;;;;;;5012079;28;20050;-75
2023/05/28 10:16:14;;;;;;;10.15;5.53;;;21.80;91.70;;;;;;4995523;28;20037;-75
2023/05/28 10:18:41;;;;;;;10.60;5.50;;;22.00;92.20;;;;;;5027665;28;20226;-75
2023/05/28 10:21:09;;;;;;;10.63;5.25;;;22.20;91.90;;;;;;4993833;28;20037;-75
2023/05/28 10:23:35;;;;;;;11.90;5.40;;;22.30;91.70;;;;;;4984111;28;20041;-75
2023/05/28 10:26:02;;;;;;;11.38;5.13;;;22.40;90.70;;;;;;5008779;28;20037;-76
2023/05/28 10:28:30;;;;;;;11.90;5.25;;;22.40;90.40;;;;;;5004695;28;20045;-76
2023/05/28 10:31:05;;;;;;;14.68;5.60;;;22.50;90.30;;;;;;5006508;28;20041;-75
2023/05/28 10:33:36;;;;;;;9.00;5.32;;;22.60;88.90;;;;;;5025532;28;20036;-76
2023/05/28 10:36:02;;;;;;;11.50;5.10;;;22.50;85.70;;;;;;4994062;28;20109;-76
2023/05/28 10:38:29;;;;;;;62.15;10.77;;;22.60;87.70;;;;;;5011070;28;20049;-76
2023/05/28 10:41:02;;;;;;;17.75;5.80;;;22.70;86.10;;;;;;5010621;28;20086;-76
2023/05/28 10:43:45;;;;;;;24.15;6.70;;;22.80;86.30;;;;;;5003374;28;20143;-76
2023/05/28 10:46:18;;;;;;;26.20;6.85;;;22.80;86.20;;;;;;5008800;28;20068;-76
2023/05/28 10:49:12;;;;;;;100.47;14.52;;;22.80;84.00;;;;;;5012764;28;20042;-77
2023/05/28 10:52:00;;;;;;;11.23;5.03;;;23.00;84.00;;;;;;5016907;28;20528;-76
2023/05/28 10:54:45;;;;;;;10.70;4.82;;;23.00;80.60;;;;;;5008758;28;20133;-76
2023/05/28 10:57:11;;;;;;;38.20;7.55;;;23.10;80.90;;;;;;5013622;28;20137;-76
2023/05/28 11:00:00;;;;;;;12.77;5.13;;;23.10;80.10;;;;;;4996736;28;20045;-77
2023/05/28 11:02:33;;;;;;;13.45;5.35;;;23.10;79.50;;;;;;5014459;28;20068;-77
2023/05/28 11:05:04;;;;;;;12.05;5.00;;;23.10;79.50;;;;;;5012886;28;20037;-77
2023/05/28 11:07:38;;;;;;;9.60;5.28;;;23.30;81.40;;;;;;5029997;28;20044;-77
2023/05/28 11:10:06;;;;;;;12.32;5.10;;;23.30;76.50;;;;;;4994635;28;20167;-77
2023/05/28 11:12:35;;;;;;;10.40;4.43;;;23.30;78.40;;;;;;5011555;28;20045;-76
2023/05/28 11:15:01;;;;;;;11.48;5.15;;;23.50;78.10;;;;;;5012436;28;20041;-77
2023/05/28 11:17:27;;;;;;;8.85;4.65;;;23.50;77.90;;;;;;5011024;28;20052;-77
2023/05/28 11:19:53;;;;;;;16.95;5.25;;;23.50;75.90;;;;;;5001590;28;20041;-77
2023/05/28 11:22:20;;;;;;;11.07;5.22;;;23.50;76.60;;;;;;5011095;28;20164;-77
2023/05/28 11:25:00;;;;;;;10.63;5.13;;;23.40;75.70;;;;;;4978607;28;20131;-77
2023/05/28 11:27:32;;;;;;;13.07;5.20;;;23.60;75.80;;;;;;5025832;28;20561;-77
2023/05/28 11:30:03;;;;;;;12.23;5.93;;;23.70;75.40;;;;;;5008816;28;20044;-76
2023/05/28 11:32:32;;;;;;;11.88;5.05;;;23.80;74.60;;;;;;4996255;28;20112;-76
2023/05/28 11:34:58;;;;;;;9.52;4.80;;;23.70;74.10;;;;;;5008138;28;20038;-75
2023/05/28 11:37:26;;;;;;;8.43;5.13;;;23.60;73.00;;;;;;5014563;28;20048;-75
2023/05/28 11:39:53;;;;;;;11.48;4.95;;;23.60;74.00;;;;;;5015930;28;20497;-75
2023/05/28 11:42:20;;;;;;;9.25;5.30;;;23.70;73.40;;;;;;5029333;28;20041;-75
2023/05/28 11:44:46;;;;;;;9.65;4.90;;;23.60;73.30;;;;;;5002419;28;20042;-74
2023/05/28 11:47:13;;;;;;;10.93;4.63;;;23.60;73.30;;;;;;5013608;28;20037;-75
2023/05/28 11:49:39;;;;;;;9.77;5.03;;;23.70;73.10;;;;;;4982658;28;20041;-74
2023/05/28 11:52:09;;;;;;;7.68;4.55;;;23.90;74.60;;;;;;5014068;28;20072;-74
2023/05/28 11:54:34;;;;;;;9.27;4.45;;;24.00;72.90;;;;;;5014544;28;20037;-75
2023/05/28 11:57:03;;;;;;;8.82;4.60;;;23.90;72.80;;;;;;5014988;28;20052;-75
2023/05/28 11:59:29;;;;;;;12.50;4.75;;;24.10;72.30;;;;;;4980286;28;20092;-75
2023/05/28 12:02:12;;;;;;;11.32;4.78;;;24.10;72.20;;;;;;5009810;28;20045;-75
2023/05/28 12:04:37;;;;;;;8.48;4.45;;;24.10;70.70;;;;;;4994098;28;20095;-75
2023/05/28 12:07:03;;;;;;;7.78;4.20;;;24.20;70.50;;;;;;5011663;28;20065;-75
2023/05/28 12:09:29;;;;;;;7.18;3.95;;;24.30;70.20;;;;;;5011290;28;20077;-74
2023/05/28 12:12:11;;;;;;;9.20;4.30;;;24.30;69.50;;;;;;5016646;28;20118;-75
2023/05/28 12:14:37;;;;;;;8.43;5.03;;;24.30;67.60;;;;;;4977633;28;20490;-74
2023/05/28 12:17:08;;;;;;;10.65;4.57;;;24.20;67.00;;;;;;5008645;28;20099;-74
2023/05/28 12:19:35;;;;;;;7.97;4.28;;;24.00;66.10;;;;;;4990140;28;20391;-74
2023/05/28 12:22:02;;;;;;;10.15;4.47;;;23.90;68.20;;;;;;5010392;28;20618;-74
2023/05/28 12:24:29;;;;;;;5.53;3.63;;;23.90;66.90;;;;;;5010777;28;20037;-74
2023/05/28 12:26:54;;;;;;;7.65;4.13;;;24.00;66.70;;;;;;5010180;28;20037;-74
2023/05/28 12:29:20;;;;;;;7.35;4.20;;;24.00;65.90;;;;;;5008677;28;20568;-74
2023/05/28 12:31:46;;;;;;;7.35;4.32;;;24.10;65.70;;;;;;5007873;28;20108;-74
2023/05/28 12:34:11;;;;;;;6.40;4.30;;;24.20;65.70;;;;;;4974568;28;20039;-74
2023/05/28 12:36:37;;;;;;;5.93;3.97;;;24.30;65.20;;;;;;5009302;28;20506;-74
2023/05/28 12:39:04;;;;;;;7.95;4.25;;;24.30;63.80;;;;;;4994954;28;20056;-74
2023/05/28 12:41:30;;;;;;;6.80;4.32;;;24.40;64.70;;;;;;5007889;28;20116;-74